sensor_id;sensor_type;location;lat;lon;timestamp;temperature;humidity
67586;SHT31;55785;47.946;20.540;2022-08-06T00:02:05;21.48;57.97
67586;SHT31;55785;47.946;20.540;2022-08-06T00:04:30;21.46;58.30
67586;SHT31;55785;47.946;20.540;2022-08-06T00:06:56;21.55;57.96
67586;SHT31;55785;47.946;20.540;2022-08-06T00:09:21;21.44;58.21
67586;SHT31;55785;47.946;20.540;2022-08-06T00:11:48;21.44;58.07
67586;SHT31;55785;47.946;20.540;2022-08-06T00:14:13;21.44;57.92
67586;SHT31;55785;47.946;20.540;2022-08-06T00:16:39;21.42;58.08
67586;SHT31;55785;47.946;20.540;2022-08-06T00:19:04;21.38;58.29
67586;SHT31;55785;47.946;20.540;2022-08-06T00:21:30;21.37;58.22
67586;SHT31;55785;47.946;20.540;2022-08-06T00:23:55;21.37;58.20
67586;SHT31;55785;47.946;20.540;2022-08-06T00:26:20;21.35;58.18
67586;SHT31;55785;47.946;20.540;2022-08-06T00:28:46;21.41;58.27
67586;SHT31;55785;47.946;20.540;2022-08-06T00:31:11;21.34;58.26
67586;SHT31;55785;47.946;20.540;2022-08-06T00:33:37;21.32;58.26
67586;SHT31;55785;47.946;20.540;2022-08-06T00:36:03;21.24;58.60
67586;SHT31;55785;47.946;20.540;2022-08-06T00:38:28;21.27;58.21
67586;SHT31;55785;47.946;20.540;2022-08-06T00:40:54;21.27;58.36
67586;SHT31;55785;47.946;20.540;2022-08-06T00:43:20;21.20;58.70
67586;SHT31;55785;47.946;20.540;2022-08-06T00:45:46;21.27;58.57
67586;SHT31;55785;47.946;20.540;2022-08-06T00:48:12;21.20;58.61
67586;SHT31;55785;47.946;20.540;2022-08-06T00:50:38;21.21;58.71
67586;SHT31;55785;47.946;20.540;2022-08-06T00:53:03;21.21;58.77
67586;SHT31;55785;47.946;20.540;2022-08-06T00:55:30;21.20;58.68
67586;SHT31;55785;47.946;20.540;2022-08-06T00:57:55;21.15;58.69
67586;SHT31;55785;47.946;20.540;2022-08-06T01:00:21;21.10;58.97
67586;SHT31;55785;47.946;20.540;2022-08-06T01:02:46;21.10;58.90
67586;SHT31;55785;47.946;20.540;2022-08-06T01:05:11;21.11;58.95
67586;SHT31;55785;47.946;20.540;2022-08-06T01:07:37;21.03;59.24
67586;SHT31;55785;47.946;20.540;2022-08-06T01:10:03;21.03;59.01
67586;SHT31;55785;47.946;20.540;2022-08-06T01:12:28;21.06;58.91
67586;SHT31;55785;47.946;20.540;2022-08-06T01:14:53;20.88;59.27
67586;SHT31;55785;47.946;20.540;2022-08-06T01:17:34;20.96;59.21
67586;SHT31;55785;47.946;20.540;2022-08-06T01:20:22;20.96;59.33
67586;SHT31;55785;47.946;20.540;2022-08-06T01:31:50;20.90;59.51
67586;SHT31;55785;47.946;20.540;2022-08-06T01:34:23;20.83;59.65
67586;SHT31;55785;47.946;20.540;2022-08-06T01:36:55;20.86;59.37
67586;SHT31;55785;47.946;20.540;2022-08-06T01:39:22;20.87;59.12
67586;SHT31;55785;47.946;20.540;2022-08-06T01:41:52;20.81;59.47
67586;SHT31;55785;47.946;20.540;2022-08-06T01:44:20;20.80;59.61
67586;SHT31;55785;47.946;20.540;2022-08-06T01:46:50;20.73;59.68
67586;SHT31;55785;47.946;20.540;2022-08-06T01:49:20;20.70;59.78
67586;SHT31;55785;47.946;20.540;2022-08-06T01:51:49;20.70;59.81
67586;SHT31;55785;47.946;20.540;2022-08-06T01:54:16;20.70;59.79
67586;SHT31;55785;47.946;20.540;2022-08-06T01:56:45;20.66;59.74
67586;SHT31;55785;47.946;20.540;2022-08-06T01:59:14;20.59;60.05
67586;SHT31;55785;47.946;20.540;2022-08-06T02:01:40;20.60;59.93
67586;SHT31;55785;47.946;20.540;2022-08-06T02:04:10;20.63;59.99
67586;SHT31;55785;47.946;20.540;2022-08-06T02:06:39;20.60;59.85
67586;SHT31;55785;47.946;20.540;2022-08-06T02:09:09;20.57;59.94
67586;SHT31;55785;47.946;20.540;2022-08-06T02:11:37;20.59;59.94
67586;SHT31;55785;47.946;20.540;2022-08-06T02:14:05;20.65;59.77
67586;SHT31;55785;47.946;20.540;2022-08-06T02:16:35;20.67;59.76
67586;SHT31;55785;47.946;20.540;2022-08-06T02:19:02;20.57;59.88
67586;SHT31;55785;47.946;20.540;2022-08-06T02:21:29;20.60;59.94
67586;SHT31;55785;47.946;20.540;2022-08-06T02:23:56;20.60;59.86
67586;SHT31;55785;47.946;20.540;2022-08-06T02:26:24;20.50;60.11
67586;SHT31;55785;47.946;20.540;2022-08-06T02:28:53;20.48;60.35
67586;SHT31;55785;47.946;20.540;2022-08-06T02:31:20;20.36;60.60
67586;SHT31;55785;47.946;20.540;2022-08-06T02:33:46;20.35;60.63
67586;SHT31;55785;47.946;20.540;2022-08-06T02:36:18;20.36;60.69
67586;SHT31;55785;47.946;20.540;2022-08-06T02:39:03;20.29;60.85
67586;SHT31;55785;47.946;20.540;2022-08-06T02:41:40;20.22;60.96
67586;SHT31;55785;47.946;20.540;2022-08-06T02:44:15;20.24;60.87
67586;SHT31;55785;47.946;20.540;2022-08-06T02:46:54;20.22;61.07
67586;SHT31;55785;47.946;20.540;2022-08-06T02:49:25;20.19;61.13
67586;SHT31;55785;47.946;20.540;2022-08-06T02:51:55;20.14;61.12
67586;SHT31;55785;47.946;20.540;2022-08-06T02:54:33;20.12;61.28
67586;SHT31;55785;47.946;20.540;2022-08-06T02:57:02;20.11;61.18
67586;SHT31;55785;47.946;20.540;2022-08-06T02:59:31;20.12;61.21
67586;SHT31;55785;47.946;20.540;2022-08-06T03:02:01;20.17;61.08
67586;SHT31;55785;47.946;20.540;2022-08-06T03:04:29;20.15;61.13
67586;SHT31;55785;47.946;20.540;2022-08-06T03:06:56;20.09;61.34
67586;SHT31;55785;47.946;20.540;2022-08-06T03:09:23;20.05;61.30
67586;SHT31;55785;47.946;20.540;2022-08-06T03:11:50;19.98;61.54
67586;SHT31;55785;47.946;20.540;2022-08-06T03:14:17;20.02;61.55
67586;SHT31;55785;47.946;20.540;2022-08-06T03:16:44;19.94;61.70
67586;SHT31;55785;47.946;20.540;2022-08-06T03:19:11;19.90;61.87
67586;SHT31;55785;47.946;20.540;2022-08-06T03:21:38;19.97;61.67
67586;SHT31;55785;47.946;20.540;2022-08-06T03:24:06;19.90;61.93
67586;SHT31;55785;47.946;20.540;2022-08-06T03:26:32;19.85;62.08
67586;SHT31;55785;47.946;20.540;2022-08-06T03:28:59;19.82;62.02
67586;SHT31;55785;47.946;20.540;2022-08-06T03:31:25;19.81;62.11
67586;SHT31;55785;47.946;20.540;2022-08-06T03:33:53;19.78;62.15
67586;SHT31;55785;47.946;20.540;2022-08-06T03:36:20;19.81;62.05
67586;SHT31;55785;47.946;20.540;2022-08-06T03:38:53;19.91;61.81
67586;SHT31;55785;47.946;20.540;2022-08-06T03:41:19;19.81;62.27
67586;SHT31;55785;47.946;20.540;2022-08-06T03:43:45;19.81;62.33
67586;SHT31;55785;47.946;20.540;2022-08-06T03:46:11;19.81;62.32
67586;SHT31;55785;47.946;20.540;2022-08-06T03:48:40;19.77;62.42
67586;SHT31;55785;47.946;20.540;2022-08-06T03:51:11;19.84;62.13
67586;SHT31;55785;47.946;20.540;2022-08-06T03:53:38;19.87;61.97
67586;SHT31;55785;47.946;20.540;2022-08-06T03:56:06;19.84;62.19
67586;SHT31;55785;47.946;20.540;2022-08-06T03:58:37;19.90;62.21
67586;SHT31;55785;47.946;20.540;2022-08-06T04:01:05;19.91;61.99
67586;SHT31;55785;47.946;20.540;2022-08-06T04:03:32;19.95;62.01
67586;SHT31;55785;47.946;20.540;2022-08-06T04:05:59;20.00;61.93
67586;SHT31;55785;47.946;20.540;2022-08-06T04:08:25;20.00;61.83
67586;SHT31;55785;47.946;20.540;2022-08-06T04:10:51;20.07;61.59
67586;SHT31;55785;47.946;20.540;2022-08-06T04:13:19;20.09;61.63
67586;SHT31;55785;47.946;20.540;2022-08-06T04:15:45;20.15;61.36
67586;SHT31;55785;47.946;20.540;2022-08-06T04:18:14;20.22;61.43
67586;SHT31;55785;47.946;20.540;2022-08-06T04:20:44;20.28;61.13
67586;SHT31;55785;47.946;20.540;2022-08-06T04:23:10;20.35;61.19
67586;SHT31;55785;47.946;20.540;2022-08-06T04:25:39;20.39;61.06
67586;SHT31;55785;47.946;20.540;2022-08-06T04:28:06;20.48;60.82
67586;SHT31;55785;47.946;20.540;2022-08-06T04:30:33;20.52;60.78
67586;SHT31;55785;47.946;20.540;2022-08-06T04:33:01;20.67;60.40
67586;SHT31;55785;47.946;20.540;2022-08-06T04:35:30;20.77;60.33
67586;SHT31;55785;47.946;20.540;2022-08-06T04:37:57;20.81;60.18
67586;SHT31;55785;47.946;20.540;2022-08-06T04:40:24;20.88;60.44
67586;SHT31;55785;47.946;20.540;2022-08-06T04:42:50;20.94;60.54
67586;SHT31;55785;47.946;20.540;2022-08-06T04:45:16;20.98;60.41
67586;SHT31;55785;47.946;20.540;2022-08-06T04:47:42;21.11;60.07
67586;SHT31;55785;47.946;20.540;2022-08-06T04:50:09;21.25;59.89
67586;SHT31;55785;47.946;20.540;2022-08-06T04:52:35;21.32;59.64
67586;SHT31;55785;47.946;20.540;2022-08-06T04:55:00;21.42;59.58
67586;SHT31;55785;47.946;20.540;2022-08-06T04:57:26;21.54;58.82
67586;SHT31;55785;47.946;20.540;2022-08-06T04:59:51;21.66;58.72
67586;SHT31;55785;47.946;20.540;2022-08-06T05:02:16;21.76;58.80
67586;SHT31;55785;47.946;20.540;2022-08-06T05:04:42;21.92;58.24
67586;SHT31;55785;47.946;20.540;2022-08-06T05:09:36;22.21;57.22
67586;SHT31;55785;47.946;20.540;2022-08-06T05:12:08;22.37;57.39
67586;SHT31;55785;47.946;20.540;2022-08-06T05:17:25;22.71;56.34
67586;SHT31;55785;47.946;20.540;2022-08-06T05:20:00;22.75;56.54
67586;SHT31;55785;47.946;20.540;2022-08-06T05:22:27;22.82;56.59
67586;SHT31;55785;47.946;20.540;2022-08-06T05:24:53;23.00;56.26
67586;SHT31;55785;47.946;20.540;2022-08-06T05:27:19;23.20;55.24
67586;SHT31;55785;47.946;20.540;2022-08-06T05:29:45;23.40;55.03
67586;SHT31;55785;47.946;20.540;2022-08-06T05:32:10;23.56;54.09
67586;SHT31;55785;47.946;20.540;2022-08-06T05:34:36;23.67;54.00
67586;SHT31;55785;47.946;20.540;2022-08-06T05:37:01;23.79;53.98
67586;SHT31;55785;47.946;20.540;2022-08-06T05:39:26;24.01;53.40
67586;SHT31;55785;47.946;20.540;2022-08-06T05:41:52;24.08;53.43
67586;SHT31;55785;47.946;20.540;2022-08-06T05:44:17;24.46;52.19
67586;SHT31;55785;47.946;20.540;2022-08-06T05:46:53;24.55;52.42
67586;SHT31;55785;47.946;20.540;2022-08-06T05:52:08;25.12;50.09
67586;SHT31;55785;47.946;20.540;2022-08-06T05:54:47;25.45;48.72
67586;SHT31;55785;47.946;20.540;2022-08-06T05:57:33;25.45;50.03
67586;SHT31;55785;47.946;20.540;2022-08-06T06:00:04;25.58;50.06
67586;SHT31;55785;47.946;20.540;2022-08-06T06:02:31;25.76;49.39
67586;SHT31;55785;47.946;20.540;2022-08-06T06:04:57;25.83;49.20
67586;SHT31;55785;47.946;20.540;2022-08-06T06:07:23;25.80;48.81
67586;SHT31;55785;47.946;20.540;2022-08-06T06:09:49;25.78;49.15
67586;SHT31;55785;47.946;20.540;2022-08-06T06:12:14;25.90;48.47
67586;SHT31;55785;47.946;20.540;2022-08-06T06:14:42;26.04;48.91
67586;SHT31;55785;47.946;20.540;2022-08-06T06:20:20;26.34;47.61
67586;SHT31;55785;47.946;20.540;2022-08-06T06:25:44;26.93;45.00
67586;SHT31;55785;47.946;20.540;2022-08-06T06:28:33;26.91;42.55
67586;SHT31;55785;47.946;20.540;2022-08-06T06:31:19;26.99;41.95
67586;SHT31;55785;47.946;20.540;2022-08-06T06:41:58;27.54;41.37
67586;SHT31;55785;47.946;20.540;2022-08-06T06:44:50;27.72;40.61
67586;SHT31;55785;47.946;20.540;2022-08-06T06:48:06;27.87;41.48
67586;SHT31;55785;47.946;20.540;2022-08-06T06:50:28;28.09;40.62
67586;SHT31;55785;47.946;20.540;2022-08-06T06:52:55;28.50;40.06
67586;SHT31;55785;47.946;20.540;2022-08-06T06:55:36;28.91;40.61
67586;SHT31;55785;47.946;20.540;2022-08-06T07:00:37;29.34;38.71
67586;SHT31;55785;47.946;20.540;2022-08-06T07:03:03;29.28;38.06
67586;SHT31;55785;47.946;20.540;2022-08-06T07:05:31;29.31;37.78
67586;SHT31;55785;47.946;20.540;2022-08-06T07:07:57;29.44;38.42
67586;SHT31;55785;47.946;20.540;2022-08-06T07:10:24;29.48;37.82
67586;SHT31;55785;47.946;20.540;2022-08-06T07:12:52;29.54;37.54
67586;SHT31;55785;47.946;20.540;2022-08-06T07:15:19;29.75;38.56
67586;SHT31;55785;47.946;20.540;2022-08-06T07:17:47;30.06;37.91
67586;SHT31;55785;47.946;20.540;2022-08-06T07:20:26;30.03;37.40
67586;SHT31;55785;47.946;20.540;2022-08-06T07:22:58;30.21;37.75
67586;SHT31;55785;47.946;20.540;2022-08-06T07:25:24;30.31;35.98
67586;SHT31;55785;47.946;20.540;2022-08-06T07:27:51;30.38;35.17
67586;SHT31;55785;47.946;20.540;2022-08-06T07:30:18;30.49;34.85
67586;SHT31;55785;47.946;20.540;2022-08-06T07:32:46;30.58;34.19
67586;SHT31;55785;47.946;20.540;2022-08-06T07:35:13;30.96;34.53
67586;SHT31;55785;47.946;20.540;2022-08-06T07:37:49;31.00;35.12
67586;SHT31;55785;47.946;20.540;2022-08-06T07:40:27;31.63;34.26
67586;SHT31;55785;47.946;20.540;2022-08-06T07:42:59;31.67;32.61
67586;SHT31;55785;47.946;20.540;2022-08-06T07:45:28;31.51;34.10
67586;SHT31;55785;47.946;20.540;2022-08-06T07:47:55;31.84;32.76
67586;SHT31;55785;47.946;20.540;2022-08-06T07:50:23;32.60;30.98
67586;SHT31;55785;47.946;20.540;2022-08-06T07:52:50;32.91;30.45
67586;SHT31;55785;47.946;20.540;2022-08-06T07:55:16;33.01;31.17
67586;SHT31;55785;47.946;20.540;2022-08-06T07:57:42;32.22;31.77
67586;SHT31;55785;47.946;20.540;2022-08-06T08:00:08;32.84;30.96
67586;SHT31;55785;47.946;20.540;2022-08-06T08:02:34;32.52;31.53
67586;SHT31;55785;47.946;20.540;2022-08-06T08:05:00;32.33;31.02
67586;SHT31;55785;47.946;20.540;2022-08-06T08:07:25;32.08;31.91
67586;SHT31;55785;47.946;20.540;2022-08-06T08:09:52;32.53;31.43
67586;SHT31;55785;47.946;20.540;2022-08-06T08:12:18;32.88;30.14
67586;SHT31;55785;47.946;20.540;2022-08-06T08:14:46;33.18;29.26
67586;SHT31;55785;47.946;20.540;2022-08-06T08:17:12;33.06;29.20
67586;SHT31;55785;47.946;20.540;2022-08-06T08:19:37;33.57;29.81
67586;SHT31;55785;47.946;20.540;2022-08-06T08:22:10;33.04;29.72
67586;SHT31;55785;47.946;20.540;2022-08-06T08:24:37;32.84;30.21
67586;SHT31;55785;47.946;20.540;2022-08-06T08:27:04;32.86;29.92
67586;SHT31;55785;47.946;20.540;2022-08-06T08:29:29;32.87;30.66
67586;SHT31;55785;47.946;20.540;2022-08-06T08:31:55;33.28;30.03
67586;SHT31;55785;47.946;20.540;2022-08-06T08:34:21;33.90;29.19
67586;SHT31;55785;47.946;20.540;2022-08-06T08:36:46;33.54;29.02
67586;SHT31;55785;47.946;20.540;2022-08-06T08:39:12;33.72;29.94
67586;SHT31;55785;47.946;20.540;2022-08-06T08:41:44;34.10;29.10
67586;SHT31;55785;47.946;20.540;2022-08-06T08:44:11;33.97;27.73
67586;SHT31;55785;47.946;20.540;2022-08-06T08:46:43;34.13;27.94
67586;SHT31;55785;47.946;20.540;2022-08-06T08:52:01;34.34;28.59
67586;SHT31;55785;47.946;20.540;2022-08-06T08:54:29;34.72;29.61
67586;SHT31;55785;47.946;20.540;2022-08-06T08:56:56;34.84;29.97
67586;SHT31;55785;47.946;20.540;2022-08-06T08:59:22;34.82;29.22
67586;SHT31;55785;47.946;20.540;2022-08-06T09:01:48;34.78;30.85
67586;SHT31;55785;47.946;20.540;2022-08-06T09:04:14;34.55;30.79
67586;SHT31;55785;47.946;20.540;2022-08-06T09:06:40;34.84;28.48
67586;SHT31;55785;47.946;20.540;2022-08-06T09:09:06;34.37;29.43
67586;SHT31;55785;47.946;20.540;2022-08-06T09:11:33;34.74;29.42
67586;SHT31;55785;47.946;20.540;2022-08-06T09:14:06;34.94;30.20
67586;SHT31;55785;47.946;20.540;2022-08-06T09:16:33;35.35;29.97
67586;SHT31;55785;47.946;20.540;2022-08-06T09:18:59;35.45;29.15
67586;SHT31;55785;47.946;20.540;2022-08-06T09:21:25;35.63;29.36
67586;SHT31;55785;47.946;20.540;2022-08-06T09:23:51;35.38;29.93
67586;SHT31;55785;47.946;20.540;2022-08-06T09:26:17;35.39;29.83
67586;SHT31;55785;47.946;20.540;2022-08-06T09:28:43;35.43;30.10
67586;SHT31;55785;47.946;20.540;2022-08-06T09:31:16;35.47;30.14
67586;SHT31;55785;47.946;20.540;2022-08-06T09:34:04;34.98;30.69
67586;SHT31;55785;47.946;20.540;2022-08-06T09:36:44;35.03;31.14
67586;SHT31;55785;47.946;20.540;2022-08-06T09:39:09;35.50;29.45
67586;SHT31;55785;47.946;20.540;2022-08-06T09:41:45;35.13;29.42
67586;SHT31;55785;47.946;20.540;2022-08-06T09:44:11;34.77;30.27
67586;SHT31;55785;47.946;20.540;2022-08-06T09:49:06;34.81;31.70
67586;SHT31;55785;47.946;20.540;2022-08-06T09:51:31;35.18;31.61
67586;SHT31;55785;47.946;20.540;2022-08-06T09:53:58;35.25;30.62
67586;SHT31;55785;47.946;20.540;2022-08-06T09:56:27;35.15;30.05
67586;SHT31;55785;47.946;20.540;2022-08-06T09:59:06;35.03;30.86
67586;SHT31;55785;47.946;20.540;2022-08-06T10:01:43;35.15;30.67
67586;SHT31;55785;47.946;20.540;2022-08-06T10:04:26;35.19;29.90
67586;SHT31;55785;47.946;20.540;2022-08-06T10:06:56;34.82;30.60
67586;SHT31;55785;47.946;20.540;2022-08-06T10:09:23;34.65;30.55
67586;SHT31;55785;47.946;20.540;2022-08-06T10:11:49;34.92;30.23
67586;SHT31;55785;47.946;20.540;2022-08-06T10:14:30;34.74;30.49
67586;SHT31;55785;47.946;20.540;2022-08-06T10:17:16;35.09;30.16
67586;SHT31;55785;47.946;20.540;2022-08-06T10:19:43;35.03;30.32
67586;SHT31;55785;47.946;20.540;2022-08-06T10:22:10;34.70;30.31
67586;SHT31;55785;47.946;20.540;2022-08-06T10:24:41;34.61;30.68
67586;SHT31;55785;47.946;20.540;2022-08-06T10:27:09;34.39;30.76
67586;SHT31;55785;47.946;20.540;2022-08-06T10:29:40;34.70;30.72
67586;SHT31;55785;47.946;20.540;2022-08-06T10:32:08;34.60;30.98
67586;SHT31;55785;47.946;20.540;2022-08-06T10:34:35;34.30;31.33
67586;SHT31;55785;47.946;20.540;2022-08-06T10:37:06;34.23;31.70
67586;SHT31;55785;47.946;20.540;2022-08-06T10:39:34;33.95;31.91
67586;SHT31;55785;47.946;20.540;2022-08-06T10:42:00;33.79;32.40
67586;SHT31;55785;47.946;20.540;2022-08-06T10:44:27;34.26;32.03
67586;SHT31;55785;47.946;20.540;2022-08-06T10:46:53;34.06;32.13
67586;SHT31;55785;47.946;20.540;2022-08-06T10:49:20;34.21;31.75
67586;SHT31;55785;47.946;20.540;2022-08-06T10:51:47;34.88;31.05
67586;SHT31;55785;47.946;20.540;2022-08-06T10:54:14;35.08;31.68
67586;SHT31;55785;47.946;20.540;2022-08-06T10:56:40;35.42;30.51
67586;SHT31;55785;47.946;20.540;2022-08-06T10:59:06;35.30;30.45
67586;SHT31;55785;47.946;20.540;2022-08-06T11:14:53;35.47;29.87
67586;SHT31;55785;47.946;20.540;2022-08-06T11:17:18;35.15;30.38
67586;SHT31;55785;47.946;20.540;2022-08-06T11:19:48;34.55;30.74
67586;SHT31;55785;47.946;20.540;2022-08-06T11:22:37;34.13;31.37
67586;SHT31;55785;47.946;20.540;2022-08-06T11:25:04;33.99;32.12
67586;SHT31;55785;47.946;20.540;2022-08-06T11:27:53;33.97;32.69
67586;SHT31;55785;47.946;20.540;2022-08-06T11:30:20;33.93;31.41
67586;SHT31;55785;47.946;20.540;2022-08-06T11:32:52;34.30;31.70
67586;SHT31;55785;47.946;20.540;2022-08-06T11:38:02;34.80;30.63
67586;SHT31;55785;47.946;20.540;2022-08-06T11:40:28;34.61;30.32
67586;SHT31;55785;47.946;20.540;2022-08-06T11:44:02;34.63;30.81
67586;SHT31;55785;47.946;20.540;2022-08-06T11:46:41;34.68;30.29
67586;SHT31;55785;47.946;20.540;2022-08-06T11:51:57;34.78;30.45
67586;SHT31;55785;47.946;20.540;2022-08-06T11:59:36;35.63;28.73
67586;SHT31;55785;47.946;20.540;2022-08-06T12:02:07;35.64;28.88
67586;SHT31;55785;47.946;20.540;2022-08-06T12:07:29;35.02;30.05
67586;SHT31;55785;47.946;20.540;2022-08-06T12:14:56;34.85;30.42
67586;SHT31;55785;47.946;20.540;2022-08-06T12:17:24;35.18;30.69
67586;SHT31;55785;47.946;20.540;2022-08-06T12:19:51;35.06;31.67
67586;SHT31;55785;47.946;20.540;2022-08-06T12:22:19;34.99;32.17
67586;SHT31;55785;47.946;20.540;2022-08-06T12:24:48;35.28;31.92
67586;SHT31;55785;47.946;20.540;2022-08-06T12:27:14;34.94;32.77
67586;SHT31;55785;47.946;20.540;2022-08-06T12:29:40;34.26;34.13
67586;SHT31;55785;47.946;20.540;2022-08-06T12:32:32;33.70;35.18
67586;SHT31;55785;47.946;20.540;2022-08-06T12:35:06;33.45;36.19
67586;SHT31;55785;47.946;20.540;2022-08-06T12:37:44;32.94;37.16
67586;SHT31;55785;47.946;20.540;2022-08-06T12:40:12;32.77;37.26
67586;SHT31;55785;47.946;20.540;2022-08-06T12:42:37;32.76;37.43
67586;SHT31;55785;47.946;20.540;2022-08-06T12:45:03;32.72;37.34
67586;SHT31;55785;47.946;20.540;2022-08-06T12:47:28;32.76;37.94
67586;SHT31;55785;47.946;20.540;2022-08-06T12:49:54;33.10;37.53
67586;SHT31;55785;47.946;20.540;2022-08-06T12:52:20;33.78;36.63
67586;SHT31;55785;47.946;20.540;2022-08-06T12:54:47;34.19;36.20
67586;SHT31;55785;47.946;20.540;2022-08-06T12:57:26;34.39;35.42
67586;SHT31;55785;47.946;20.540;2022-08-06T12:59:53;34.55;35.25
67586;SHT31;55785;47.946;20.540;2022-08-06T13:02:21;34.74;34.71
67586;SHT31;55785;47.946;20.540;2022-08-06T13:04:50;34.98;34.98
67586;SHT31;55785;47.946;20.540;2022-08-06T13:07:17;34.95;34.46
67586;SHT31;55785;47.946;20.540;2022-08-06T13:09:44;34.95;34.68
67586;SHT31;55785;47.946;20.540;2022-08-06T13:12:16;34.85;34.80
67586;SHT31;55785;47.946;20.540;2022-08-06T13:14:53;34.77;34.78
67586;SHT31;55785;47.946;20.540;2022-08-06T13:17:19;34.54;35.09
67586;SHT31;55785;47.946;20.540;2022-08-06T13:19:56;34.33;35.34
67586;SHT31;55785;47.946;20.540;2022-08-06T13:22:22;33.89;35.17
67586;SHT31;55785;47.946;20.540;2022-08-06T13:25:12;34.06;34.76
67586;SHT31;55785;47.946;20.540;2022-08-06T13:27:37;33.90;35.06
67586;SHT31;55785;47.946;20.540;2022-08-06T13:30:08;34.10;34.96
67586;SHT31;55785;47.946;20.540;2022-08-06T13:32:33;34.02;34.13
67586;SHT31;55785;47.946;20.540;2022-08-06T13:35:04;33.76;35.02
67586;SHT31;55785;47.946;20.540;2022-08-06T13:37:44;33.51;35.50
67586;SHT31;55785;47.946;20.540;2022-08-06T13:40:09;33.49;35.71
67586;SHT31;55785;47.946;20.540;2022-08-06T13:45:24;33.95;36.46
67586;SHT31;55785;47.946;20.540;2022-08-06T13:47:50;33.79;36.16
67586;SHT31;55785;47.946;20.540;2022-08-06T13:50:19;33.89;35.45
67586;SHT31;55785;47.946;20.540;2022-08-06T13:52:47;33.90;34.91
67586;SHT31;55785;47.946;20.540;2022-08-06T13:55:13;33.63;34.99
67586;SHT31;55785;47.946;20.540;2022-08-06T13:57:46;33.55;35.18
67586;SHT31;55785;47.946;20.540;2022-08-06T14:00:11;33.55;35.45
67586;SHT31;55785;47.946;20.540;2022-08-06T14:02:37;33.20;36.05
67586;SHT31;55785;47.946;20.540;2022-08-06T14:05:02;33.35;35.84
67586;SHT31;55785;47.946;20.540;2022-08-06T14:07:28;33.32;35.80
67586;SHT31;55785;47.946;20.540;2022-08-06T14:09:53;33.51;36.10
67586;SHT31;55785;47.946;20.540;2022-08-06T14:12:18;33.45;36.00
67586;SHT31;55785;47.946;20.540;2022-08-06T14:14:44;33.35;36.09
67586;SHT31;55785;47.946;20.540;2022-08-06T14:17:09;33.49;35.96
67586;SHT31;55785;47.946;20.540;2022-08-06T14:19:34;33.41;36.50
67586;SHT31;55785;47.946;20.540;2022-08-06T14:21:59;33.32;36.71
67586;SHT31;55785;47.946;20.540;2022-08-06T14:24:25;33.28;36.49
67586;SHT31;55785;47.946;20.540;2022-08-06T14:26:50;33.47;36.13
67586;SHT31;55785;47.946;20.540;2022-08-06T14:29:15;33.31;35.69
67586;SHT31;55785;47.946;20.540;2022-08-06T14:31:41;32.70;36.10
67586;SHT31;55785;47.946;20.540;2022-08-06T14:34:07;32.49;37.14
67586;SHT31;55785;47.946;20.540;2022-08-06T14:36:32;32.48;37.34
67586;SHT31;55785;47.946;20.540;2022-08-06T14:38:58;32.55;37.50
67586;SHT31;55785;47.946;20.540;2022-08-06T14:41:24;32.63;37.71
67586;SHT31;55785;47.946;20.540;2022-08-06T14:43:49;32.49;38.05
67586;SHT31;55785;47.946;20.540;2022-08-06T14:46:14;32.08;39.06
67586;SHT31;55785;47.946;20.540;2022-08-06T14:48:40;32.19;39.05
67586;SHT31;55785;47.946;20.540;2022-08-06T14:51:05;32.04;38.94
67586;SHT31;55785;47.946;20.540;2022-08-06T14:53:30;32.18;39.25
67586;SHT31;55785;47.946;20.540;2022-08-06T14:55:56;31.88;38.92
67586;SHT31;55785;47.946;20.540;2022-08-06T14:58:21;31.73;38.91
67586;SHT31;55785;47.946;20.540;2022-08-06T15:00:46;31.47;39.62
67586;SHT31;55785;47.946;20.540;2022-08-06T15:03:12;31.50;39.90
67586;SHT31;55785;47.946;20.540;2022-08-06T15:05:37;31.34;40.19
67586;SHT31;55785;47.946;20.540;2022-08-06T15:08:02;31.34;40.16
67586;SHT31;55785;47.946;20.540;2022-08-06T15:10:28;31.19;40.62
67586;SHT31;55785;47.946;20.540;2022-08-06T15:12:53;31.12;40.82
67586;SHT31;55785;47.946;20.540;2022-08-06T15:15:19;31.10;40.83
67586;SHT31;55785;47.946;20.540;2022-08-06T15:17:44;31.06;41.16
67586;SHT31;55785;47.946;20.540;2022-08-06T15:20:09;30.99;40.76
67586;SHT31;55785;47.946;20.540;2022-08-06T15:22:35;30.92;41.09
67586;SHT31;55785;47.946;20.540;2022-08-06T15:25:00;30.78;41.36
67586;SHT31;55785;47.946;20.540;2022-08-06T15:27:25;30.75;41.76
67586;SHT31;55785;47.946;20.540;2022-08-06T15:29:51;30.45;41.99
67586;SHT31;55785;47.946;20.540;2022-08-06T15:32:16;30.57;41.50
67586;SHT31;55785;47.946;20.540;2022-08-06T15:34:41;30.47;42.04
67586;SHT31;55785;47.946;20.540;2022-08-06T15:37:07;30.61;42.28
67586;SHT31;55785;47.946;20.540;2022-08-06T15:39:33;30.72;42.10
67586;SHT31;55785;47.946;20.540;2022-08-06T15:42:00;30.71;42.17
67586;SHT31;55785;47.946;20.540;2022-08-06T15:44:25;30.48;42.29
67586;SHT31;55785;47.946;20.540;2022-08-06T15:46:51;30.35;42.73
67586;SHT31;55785;47.946;20.540;2022-08-06T15:49:16;30.44;42.52
67586;SHT31;55785;47.946;20.540;2022-08-06T15:51:42;30.30;42.74
67586;SHT31;55785;47.946;20.540;2022-08-06T15:54:07;30.23;43.09
67586;SHT31;55785;47.946;20.540;2022-08-06T15:56:32;30.16;43.16
67586;SHT31;55785;47.946;20.540;2022-08-06T15:58:58;30.14;43.20
67586;SHT31;55785;47.946;20.540;2022-08-06T16:01:23;29.87;43.62
67586;SHT31;55785;47.946;20.540;2022-08-06T16:03:49;29.82;44.16
67586;SHT31;55785;47.946;20.540;2022-08-06T16:06:14;29.83;44.07
67586;SHT31;55785;47.946;20.540;2022-08-06T16:08:39;29.59;44.26
67586;SHT31;55785;47.946;20.540;2022-08-06T16:11:05;29.66;44.69
67586;SHT31;55785;47.946;20.540;2022-08-06T16:13:31;29.67;44.47
67586;SHT31;55785;47.946;20.540;2022-08-06T16:15:56;29.61;44.45
67586;SHT31;55785;47.946;20.540;2022-08-06T16:18:22;29.73;44.37
67586;SHT31;55785;47.946;20.540;2022-08-06T16:20:48;29.55;44.36
67586;SHT31;55785;47.946;20.540;2022-08-06T16:23:14;29.18;45.34
67586;SHT31;55785;47.946;20.540;2022-08-06T16:25:41;29.15;45.43
67586;SHT31;55785;47.946;20.540;2022-08-06T16:28:07;29.32;45.23
67586;SHT31;55785;47.946;20.540;2022-08-06T16:30:33;29.21;45.37
67586;SHT31;55785;47.946;20.540;2022-08-06T16:32:59;29.24;45.44
67586;SHT31;55785;47.946;20.540;2022-08-06T16:35:24;29.01;45.68
67586;SHT31;55785;47.946;20.540;2022-08-06T16:37:50;28.84;45.87